createdAt,value
2022-09-15T00:00:02.067Z,16.6
2022-09-15T00:01:01.837Z,16.6
2022-09-15T00:02:01.869Z,16.6
2022-09-15T00:03:02.282Z,16.6
2022-09-15T00:04:01.348Z,16.5
2022-09-15T00:05:02.323Z,16.6
2022-09-15T00:06:02.082Z,16.6
2022-09-15T00:07:02.042Z,16.5
2022-09-15T00:08:01.831Z,16.6
2022-09-15T00:09:01.656Z,16.6
2022-09-15T00:10:01.589Z,16.6
2022-09-15T00:11:01.357Z,16.6
2022-09-15T00:12:02.312Z,16.6
2022-09-15T00:13:02.063Z,16.6
2022-09-15T00:14:01.985Z,16.6
2022-09-15T00:15:01.793Z,16.6
2022-09-15T00:16:01.610Z,16.6
2022-09-15T00:17:01.652Z,16.6
2022-09-15T00:18:01.750Z,16.6
2022-09-15T00:19:01.572Z,16.6
2022-09-15T00:20:01.441Z,16.6
2022-09-15T00:21:02.357Z,16.6
2022-09-15T00:22:02.083Z,16.5
2022-09-15T00:23:02.010Z,16.6
2022-09-15T00:24:01.780Z,16.5
2022-09-15T00:25:01.604Z,16.6
2022-09-15T00:26:01.566Z,16.5
2022-09-15T00:27:01.343Z,16.6
2022-09-15T00:28:02.315Z,16.6
2022-09-15T00:29:02.123Z,16.6
2022-09-15T00:30:02.110Z,16.6
2022-09-15T00:31:01.949Z,16.6
2022-09-15T00:32:02.003Z,16.6
2022-09-15T00:33:01.948Z,16.6
2022-09-15T00:34:01.745Z,16.5
2022-09-15T00:35:01.677Z,16.6
2022-09-15T00:36:01.531Z,16.6
2022-09-15T00:37:01.395Z,16.6
2022-09-15T00:38:02.364Z,16.7
2022-09-15T00:39:02.099Z,16.6
2022-09-15T00:40:02.121Z,16.6
2022-09-15T00:41:01.991Z,16.7
2022-09-15T00:42:01.905Z,16.7
2022-09-15T00:43:01.883Z,16.7
2022-09-15T00:44:01.622Z,16.6
2022-09-15T00:45:01.524Z,16.6
2022-09-15T00:46:01.360Z,16.6
2022-09-15T00:47:18.080Z,16.6
2022-09-15T00:48:01.651Z,16.7
2022-09-15T00:49:01.554Z,16.6
2022-09-15T00:50:01.341Z,16.6
2022-09-15T00:51:02.480Z,16.7
2022-09-15T00:52:02.343Z,16.7
2022-09-15T00:53:02.175Z,16.6
2022-09-15T00:54:01.954Z,16.6
2022-09-15T00:55:01.787Z,16.6
2022-09-15T00:56:01.774Z,16.7
2022-09-15T00:57:01.562Z,16.7
2022-09-15T00:58:01.531Z,16.7
2022-09-15T00:59:02.365Z,16.7
2022-09-15T01:00:02.148Z,16.7
2022-09-15T01:01:02.138Z,16.6
2022-09-15T01:02:02.027Z,16.6
2022-09-15T01:03:02.035Z,16.7
2022-09-15T01:04:02.000Z,16.7
2022-09-15T01:05:01.858Z,16.7
2022-09-15T01:06:01.719Z,16.7
2022-09-15T01:07:01.682Z,16.6
2022-09-15T01:08:01.428Z,16.7
2022-09-15T01:09:02.340Z,16.7
2022-09-15T01:10:02.184Z,16.6
2022-09-15T01:11:02.144Z,16.7
2022-09-15T01:12:01.914Z,16.7
2022-09-15T01:13:01.792Z,16.7
2022-09-15T01:14:01.739Z,16.7
2022-09-15T01:15:01.545Z,16.7
2022-09-15T01:16:01.675Z,16.7
2022-09-15T01:17:01.483Z,16.7
2022-09-15T01:18:01.455Z,16.7
2022-09-15T01:19:02.358Z,16.7
2022-09-15T01:20:02.148Z,16.7
2022-09-15T01:21:02.031Z,16.7
2022-09-15T01:22:01.846Z,16.7
2022-09-15T01:23:01.692Z,16.6
2022-09-15T01:24:01.674Z,16.7
2022-09-15T01:25:01.405Z,16.7
2022-09-15T01:26:02.421Z,16.7
2022-09-15T01:27:09.757Z,16.7
2022-09-15T01:28:01.416Z,16.6
2022-09-15T01:29:02.406Z,16.6
2022-09-15T01:30:02.190Z,16.6
2022-09-15T01:31:02.200Z,16.7
2022-09-15T01:32:02.116Z,16.7
2022-09-15T01:33:02.058Z,16.7
2022-09-15T01:34:01.823Z,16.7
2022-09-15T01:35:01.668Z,16.7
2022-09-15T01:36:01.642Z,16.7
2022-09-15T01:37:01.460Z,16.7
2022-09-15T01:38:02.364Z,16.7
2022-09-15T01:39:02.139Z,16.7
2022-09-15T01:40:02.160Z,16.7
2022-09-15T01:41:02.249Z,16.7
2022-09-15T01:42:01.980Z,16.7
2022-09-15T01:43:01.834Z,16.7
2022-09-15T01:44:01.677Z,16.7
2022-09-15T01:45:01.663Z,16.6
2022-09-15T01:46:01.468Z,16.7
2022-09-15T01:47:01.501Z,16.7
2022-09-15T01:48:01.453Z,16.7
2022-09-15T01:49:02.359Z,16.7
2022-09-15T01:50:02.154Z,16.7
2022-09-15T01:51:02.136Z,16.7
2022-09-15T01:52:01.901Z,16.7
2022-09-15T01:53:01.761Z,16.7
2022-09-15T01:54:01.744Z,16.7
2022-09-15T01:55:01.464Z,16.7
2022-09-15T01:56:01.389Z,16.7
2022-09-15T01:57:02.281Z,16.7
2022-09-15T01:58:02.099Z,16.7
2022-09-15T01:59:02.071Z,16.7
2022-09-15T02:00:01.822Z,16.7
2022-09-15T02:01:01.694Z,16.7
2022-09-15T02:02:01.679Z,16.7
2022-09-15T02:03:01.772Z,16.7
2022-09-15T02:04:01.506Z,16.7
2022-09-15T02:05:01.481Z,16.7
2022-09-15T02:06:02.321Z,16.7
2022-09-15T02:07:02.140Z,16.7
2022-09-15T02:08:02.093Z,16.7
2022-09-15T02:09:01.857Z,16.7
2022-09-15T02:10:01.721Z,16.7
2022-09-15T02:11:01.723Z,16.7
2022-09-15T02:12:01.489Z,16.7
2022-09-15T02:13:01.453Z,16.7
2022-09-15T02:14:02.353Z,16.7
2022-09-15T02:15:02.148Z,16.7
2022-09-15T02:16:02.045Z,16.7
2022-09-15T02:17:01.883Z,16.7
2022-09-15T02:18:01.707Z,16.7
2022-09-15T02:19:01.682Z,16.7
2022-09-15T02:20:01.417Z,16.7
2022-09-15T02:21:02.366Z,16.8
2022-09-15T02:22:02.290Z,16.8
2022-09-15T02:23:02.144Z,16.8
2022-09-15T02:24:01.967Z,16.7
2022-09-15T02:25:01.828Z,16.8
2022-09-15T02:26:01.824Z,16.8
2022-09-15T02:27:01.524Z,16.8
2022-09-15T02:28:01.475Z,16.8
2022-09-15T02:29:02.320Z,16.8
2022-09-15T02:30:02.152Z,16.8
2022-09-15T02:31:02.101Z,16.8
2022-09-15T02:32:06.328Z,16.8
2022-09-15T02:33:01.332Z,16.8
2022-09-15T02:34:02.310Z,16.8
2022-09-15T02:35:02.106Z,16.8
2022-09-15T02:36:02.084Z,16.8
2022-09-15T02:37:01.835Z,16.9
2022-09-15T02:38:01.722Z,16.9
2022-09-15T02:39:01.726Z,16.9
2022-09-15T02:40:01.584Z,16.9
2022-09-15T02:41:01.487Z,16.8
2022-09-15T02:42:02.490Z,16.9
2022-09-15T02:43:02.230Z,16.9
2022-09-15T02:44:02.316Z,16.9
2022-09-15T02:45:02.064Z,16.8
2022-09-15T02:46:02.106Z,16.9
2022-09-15T02:47:02.338Z,16.9
2022-09-15T02:48:02.114Z,16.9
2022-09-15T02:49:02.066Z,16.8
2022-09-15T02:50:01.896Z,16.9
2022-09-15T02:51:01.820Z,16.9
2022-09-15T02:52:01.774Z,16.9
2022-09-15T02:53:01.506Z,16.9
2022-09-15T02:54:01.571Z,16.9
2022-09-15T02:55:01.282Z,16.9
2022-09-15T02:56:02.287Z,16.9
2022-09-15T02:57:01.995Z,16.9
2022-09-15T02:58:01.983Z,16.9
2022-09-15T02:59:01.782Z,16.9
2022-09-15T03:00:01.643Z,16.9
2022-09-15T03:01:01.753Z,16.9
2022-09-15T03:02:01.967Z,16.9
2022-09-15T03:03:01.997Z,16.9
2022-09-15T03:04:02.088Z,16.9
2022-09-15T03:05:01.827Z,16.9
2022-09-15T03:06:01.664Z,17
2022-09-15T03:07:01.627Z,17
2022-09-15T03:08:01.389Z,17
2022-09-15T03:09:02.374Z,16.9
2022-09-15T03:10:02.175Z,17
2022-09-15T03:11:02.128Z,16.9
2022-09-15T03:12:01.941Z,16.9
2022-09-15T03:13:01.815Z,17
2022-09-15T03:14:01.750Z,17
2022-09-15T03:15:01.511Z,17
2022-09-15T03:16:01.490Z,17
2022-09-15T03:17:01.340Z,17
2022-09-15T03:18:02.451Z,17
2022-09-15T03:19:02.219Z,17
2022-09-15T03:20:02.196Z,17
2022-09-15T03:21:01.949Z,17
2022-09-15T03:22:01.961Z,17
2022-09-15T03:23:01.712Z,17
2022-09-15T03:24:01.707Z,17
2022-09-15T03:25:01.453Z,17
2022-09-15T03:26:01.441Z,17
2022-09-15T03:27:02.300Z,17
2022-09-15T03:28:02.129Z,17
2022-09-15T03:29:02.075Z,17
2022-09-15T03:30:01.875Z,17
2022-09-15T03:31:01.720Z,17
2022-09-15T03:32:02.038Z,17
2022-09-15T03:33:01.985Z,17
2022-09-15T03:34:01.795Z,17
2022-09-15T03:35:01.802Z,17
2022-09-15T03:36:01.755Z,17.1
2022-09-15T03:37:01.511Z,17
2022-09-15T03:38:01.491Z,17
2022-09-15T03:39:02.349Z,17
2022-09-15T03:40:02.256Z,17
2022-09-15T03:41:02.343Z,17
2022-09-15T03:42:02.083Z,17
2022-09-15T03:43:02.167Z,17.1
2022-09-15T03:44:01.856Z,17.1
2022-09-15T03:45:01.962Z,17
2022-09-15T03:46:01.750Z,17.1
2022-09-15T03:47:01.800Z,17
2022-09-15T03:48:01.745Z,17.1
2022-09-15T03:49:01.528Z,17.1
2022-09-15T03:50:01.574Z,17
2022-09-15T03:51:01.365Z,17
2022-09-15T03:52:02.461Z,17
2022-09-15T03:53:02.187Z,17
2022-09-15T03:54:02.145Z,17
2022-09-15T03:55:01.970Z,17
2022-09-15T03:56:01.835Z,17
2022-09-15T03:57:01.760Z,17
2022-09-15T03:58:01.579Z,17
2022-09-15T03:59:01.483Z,17
2022-09-15T04:00:02.732Z,17
2022-09-15T04:01:01.566Z,17
2022-09-15T04:02:01.475Z,17
2022-09-15T04:03:01.537Z,17
2022-09-15T04:04:01.380Z,17
2022-09-15T04:05:02.328Z,17
2022-09-15T04:06:02.086Z,17
2022-09-15T04:07:02.079Z,17
2022-09-15T04:08:01.873Z,17
2022-09-15T04:09:01.776Z,17
2022-09-15T04:10:01.735Z,17
2022-09-15T04:11:01.483Z,17
2022-09-15T04:12:01.459Z,17
2022-09-15T04:13:02.338Z,17
2022-09-15T04:14:02.139Z,17
2022-09-15T04:15:02.157Z,17
2022-09-15T04:16:02.069Z,17
2022-09-15T04:17:02.159Z,17
2022-09-15T04:18:02.139Z,17
2022-09-15T04:19:01.902Z,17.1
2022-09-15T04:20:01.741Z,17.1
2022-09-15T04:21:01.744Z,17.1
2022-09-15T04:22:01.496Z,17
2022-09-15T04:23:01.430Z,17
2022-09-15T04:24:02.340Z,17
2022-09-15T04:25:02.123Z,17
2022-09-15T04:26:02.253Z,17
2022-09-15T04:27:01.943Z,17
2022-09-15T04:28:01.921Z,17
2022-09-15T04:29:04.369Z,17
2022-09-15T04:30:01.693Z,17
2022-09-15T04:31:01.627Z,17
2022-09-15T04:32:01.682Z,17
2022-09-15T04:33:01.661Z,17
2022-09-15T04:34:01.411Z,16.9
2022-09-15T04:35:02.385Z,16.9
2022-09-15T04:36:02.175Z,16.9
2022-09-15T04:37:02.106Z,16.9
2022-09-15T04:38:01.972Z,16.9
2022-09-15T04:39:01.783Z,16.9
2022-09-15T04:40:01.794Z,16.9
2022-09-15T04:41:01.820Z,17
2022-09-15T04:42:01.664Z,16.9
2022-09-15T04:43:01.662Z,16.9
2022-09-15T04:44:01.376Z,16.9
2022-09-15T04:45:02.353Z,17
2022-09-15T04:46:02.145Z,17
2022-09-15T04:47:02.207Z,16.9
2022-09-15T04:48:02.220Z,16.9
2022-09-15T04:49:02.017Z,17
2022-09-15T04:50:01.992Z,17
2022-09-15T04:51:01.758Z,17
2022-09-15T04:52:01.582Z,17
2022-09-15T04:53:01.534Z,17
2022-09-15T04:54:01.359Z,17
2022-09-15T04:55:02.336Z,17
2022-09-15T04:56:02.115Z,17
2022-09-15T04:57:02.084Z,17
2022-09-15T04:58:01.876Z,17
2022-09-15T04:59:04.054Z,16.9
2022-09-15T05:00:02.223Z,17
2022-09-15T05:01:01.841Z,17
2022-09-15T05:02:02.019Z,17
2022-09-15T05:03:02.054Z,17
2022-09-15T05:04:02.065Z,17
2022-09-15T05:05:01.898Z,17
2022-09-15T05:06:01.629Z,17
2022-09-15T05:07:01.628Z,17
2022-09-15T05:08:01.370Z,17
2022-09-15T05:09:04.426Z,17
2022-09-15T05:10:02.070Z,17
2022-09-15T05:11:02.042Z,17
2022-09-15T05:12:01.760Z,17
2022-09-15T05:13:01.673Z,17
2022-09-15T05:14:01.673Z,17
2022-09-15T05:15:01.419Z,17
2022-09-15T05:16:02.455Z,17
2022-09-15T05:17:01.703Z,17.1
2022-09-15T05:18:01.634Z,17.1
2022-09-15T05:19:01.392Z,17.1
2022-09-15T05:20:02.353Z,17.1
2022-09-15T05:21:02.122Z,17.1
2022-09-15T05:22:02.069Z,17.1
2022-09-15T05:23:01.774Z,17.1
2022-09-15T05:24:01.664Z,17.1
2022-09-15T05:25:01.580Z,17.1
2022-09-15T05:26:01.352Z,17.1
2022-09-15T05:27:02.305Z,17.1
2022-09-15T05:28:02.078Z,17
2022-09-15T05:29:02.010Z,17.1
2022-09-15T05:30:23.830Z,17.1
2022-09-15T05:31:01.539Z,17.1
2022-09-15T05:32:02.022Z,17.1
2022-09-15T05:33:01.831Z,17.1
2022-09-15T05:34:01.643Z,17.1
2022-09-15T05:35:01.660Z,17.1
2022-09-15T05:36:01.468Z,17.1
2022-09-15T05:37:02.423Z,17.1
2022-09-15T05:38:02.234Z,17.1
2022-09-15T05:39:02.066Z,17.1
2022-09-15T05:40:05.220Z,17.1
2022-09-15T05:41:01.537Z,17
2022-09-15T05:42:01.488Z,17.1
2022-09-15T05:43:02.346Z,17
2022-09-15T05:44:02.198Z,17
2022-09-15T05:45:01.971Z,17
2022-09-15T05:46:01.761Z,16.9
2022-09-15T05:47:02.063Z,16.9
2022-09-15T05:48:01.970Z,16.8
2022-09-15T05:49:01.780Z,16.7
2022-09-15T05:50:01.628Z,16.7
2022-09-15T05:51:01.683Z,16.7
2022-09-15T05:52:01.405Z,16.7
2022-09-15T05:53:02.395Z,16.5
2022-09-15T05:54:02.159Z,16.6
2022-09-15T05:55:02.129Z,16.5
2022-09-15T05:56:01.945Z,16.7
2022-09-15T05:57:01.741Z,16.5
2022-09-15T05:58:01.668Z,16.5
2022-09-15T05:59:01.451Z,16.5
2022-09-15T06:00:02.392Z,16.5
2022-09-15T06:01:02.200Z,16.5
2022-09-15T06:02:01.375Z,16.4
2022-09-15T06:03:02.398Z,16.4
2022-09-15T06:04:01.334Z,16.3
2022-09-15T06:05:02.307Z,16.3
2022-09-15T06:06:02.044Z,16.3
2022-09-15T06:07:02.000Z,16.2
2022-09-15T06:08:01.704Z,16.2
2022-09-15T06:09:01.808Z,16.2
2022-09-15T06:10:01.674Z,16.2
2022-09-15T06:11:01.406Z,16.2
2022-09-15T06:12:02.380Z,16.2
2022-09-15T06:13:02.154Z,16.2
2022-09-15T06:14:02.055Z,16.1
2022-09-15T06:15:01.811Z,16.1
2022-09-15T06:16:01.708Z,16.1
2022-09-15T06:17:02.011Z,16.2
2022-09-15T06:18:01.978Z,16
2022-09-15T06:19:01.731Z,16.1
2022-09-15T06:20:01.603Z,16.1
2022-09-15T06:21:01.406Z,16
2022-09-15T06:22:02.406Z,16.1
2022-09-15T06:23:02.218Z,16.1
2022-09-15T06:24:02.159Z,16.1
2022-09-15T06:25:01.949Z,16.1
2022-09-15T06:26:01.754Z,16.1
2022-09-15T06:27:01.674Z,16.1
2022-09-15T06:28:01.385Z,16.1
2022-09-15T06:29:02.367Z,16.1
2022-09-15T06:30:02.091Z,16.1
2022-09-15T06:31:02.040Z,16.1
2022-09-15T06:32:01.973Z,16.1
2022-09-15T06:33:02.210Z,16.1
2022-09-15T06:34:02.171Z,16.1
2022-09-15T06:35:01.981Z,16
2022-09-15T06:36:01.809Z,16
2022-09-15T06:37:01.721Z,16.1
2022-09-15T06:38:01.482Z,16
2022-09-15T06:39:01.432Z,16
2022-09-15T06:40:02.357Z,16
2022-09-15T06:41:01.351Z,16
2022-09-15T06:42:03.631Z,15.9
2022-09-15T06:43:01.738Z,16
2022-09-15T06:44:01.648Z,16.1
2022-09-15T06:45:01.431Z,16
2022-09-15T06:46:02.415Z,16
2022-09-15T06:47:02.256Z,16
2022-09-15T06:48:23.206Z,16
2022-09-15T06:49:01.841Z,16.1
2022-09-15T06:50:01.677Z,16
2022-09-15T06:51:01.750Z,16
2022-09-15T06:52:01.495Z,15.9
2022-09-15T06:53:01.446Z,15.9
2022-09-15T06:54:02.291Z,15.9
2022-09-15T06:55:02.019Z,15.9
2022-09-15T06:56:01.936Z,15.9
2022-09-15T06:57:01.691Z,15.9
2022-09-15T06:58:01.625Z,15.9
2022-09-15T06:59:01.391Z,16
2022-09-15T07:00:02.412Z,15.8
2022-09-15T07:01:02.173Z,15.9
2022-09-15T07:02:05.022Z,16
2022-09-15T07:03:02.573Z,16
2022-09-15T07:04:01.747Z,16
2022-09-15T07:05:01.667Z,16
2022-09-15T07:06:01.381Z,16
2022-09-15T07:07:02.469Z,16
2022-09-15T07:08:02.208Z,15.9
2022-09-15T07:09:02.161Z,16
2022-09-15T07:10:01.917Z,16
2022-09-15T07:11:01.749Z,16
2022-09-15T07:12:01.646Z,16
2022-09-15T07:13:01.406Z,16
2022-09-15T07:14:02.360Z,16
2022-09-15T07:15:02.671Z,16
2022-09-15T07:16:01.590Z,15.9
2022-09-15T07:17:01.909Z,15.8
2022-09-15T07:18:01.790Z,15.8
2022-09-15T07:19:01.741Z,15.9
2022-09-15T07:20:01.496Z,16
2022-09-15T07:21:01.391Z,16
2022-09-15T07:22:02.291Z,16.1
2022-09-15T07:23:02.061Z,16.2
2022-09-15T07:24:06.376Z,16.2
2022-09-15T07:25:01.437Z,16.2
2022-09-15T07:26:02.404Z,16.2
2022-09-15T07:27:02.149Z,16.1
2022-09-15T07:28:02.118Z,16.2
2022-09-15T07:29:01.890Z,16.2
2022-09-15T07:30:01.754Z,16.3
2022-09-15T07:31:01.719Z,16.3
2022-09-15T07:32:01.727Z,16.2
2022-09-15T07:33:01.757Z,16.2
2022-09-15T07:34:01.744Z,16.2
2022-09-15T07:35:01.466Z,16.1
2022-09-15T07:36:01.391Z,16.1
2022-09-15T07:37:02.332Z,16.2
2022-09-15T07:38:02.100Z,16.1
2022-09-15T07:39:02.085Z,16.1
2022-09-15T07:40:01.877Z,16.1
2022-09-15T07:41:01.888Z,16.1
2022-09-15T07:42:01.853Z,16.2
2022-09-15T07:43:01.626Z,16.2
2022-09-15T07:44:01.515Z,16.2
2022-09-15T07:45:01.423Z,16.3
2022-09-15T07:46:01.516Z,16.3
2022-09-15T07:47:01.569Z,16.3
2022-09-15T07:48:01.513Z,16.3
2022-09-15T07:49:02.333Z,16.4
2022-09-15T07:50:02.099Z,16.4
2022-09-15T07:51:02.039Z,16.4
2022-09-15T07:52:01.804Z,16.3
2022-09-15T07:53:01.728Z,16.4
2022-09-15T07:54:01.676Z,16.4
2022-09-15T07:55:01.510Z,16.4
2022-09-15T07:56:02.391Z,16.4
2022-09-15T07:57:02.186Z,16.4
2022-09-15T07:58:02.174Z,16.3
2022-09-15T07:59:01.976Z,16.4
2022-09-15T08:00:01.906Z,16.4
2022-09-15T08:01:02.059Z,16.4
2022-09-15T08:02:02.078Z,16.4
2022-09-15T08:03:02.252Z,16.5
2022-09-15T08:04:02.236Z,16.4
2022-09-15T08:05:01.973Z,16.3
2022-09-15T08:06:01.948Z,16.4
2022-09-15T08:07:01.725Z,16.3
2022-09-15T08:08:01.712Z,16.3
2022-09-15T08:09:01.780Z,16.4
2022-09-15T08:10:02.265Z,16.5
2022-09-15T08:11:02.256Z,16.5
2022-09-15T08:12:02.036Z,16.4
2022-09-15T08:13:01.936Z,16.4
2022-09-15T08:14:01.729Z,16.3
2022-09-15T08:15:01.725Z,16.4
2022-09-15T08:16:01.502Z,16.5
2022-09-15T08:17:01.733Z,16.4
2022-09-15T08:18:01.643Z,16.4
2022-09-15T08:19:01.377Z,16.5
2022-09-15T08:20:02.345Z,16.5
2022-09-15T08:21:02.146Z,16.5
2022-09-15T08:22:02.063Z,16.4
2022-09-15T08:23:01.862Z,16.5
2022-09-15T08:24:01.735Z,16.4
2022-09-15T08:25:01.686Z,16.5
2022-09-15T08:26:01.425Z,16.5
2022-09-15T08:27:02.422Z,16.4
2022-09-15T08:28:02.150Z,16.4
2022-09-15T08:29:02.116Z,16.4
2022-09-15T08:30:01.879Z,16.5
2022-09-15T08:31:01.812Z,16.5
2022-09-15T08:32:02.124Z,16.6
2022-09-15T08:33:02.141Z,16.6
2022-09-15T08:34:01.910Z,16.5
2022-09-15T08:35:01.716Z,16.6
2022-09-15T08:36:01.603Z,16.6
2022-09-15T08:37:01.398Z,16.6
2022-09-15T08:38:02.387Z,16.5
2022-09-15T08:39:02.182Z,16.6
2022-09-15T08:40:02.224Z,16.7
2022-09-15T08:41:02.125Z,16.7
2022-09-15T08:42:02.093Z,16.8
2022-09-15T08:43:01.838Z,16.8
2022-09-15T08:44:01.811Z,16.7
2022-09-15T08:45:01.695Z,16.6
2022-09-15T08:46:01.562Z,16.7
2022-09-15T08:47:01.630Z,16.6
2022-09-15T08:48:01.637Z,16.7
2022-09-15T08:49:03.029Z,16.7
2022-09-15T08:50:02.051Z,16.7
2022-09-15T08:51:02.026Z,16.8
2022-09-15T08:52:01.796Z,16.9
2022-09-15T08:53:01.662Z,16.8
2022-09-15T08:54:01.632Z,16.9
2022-09-15T08:55:01.399Z,16.9
2022-09-15T08:56:02.337Z,16.8
2022-09-15T08:57:02.146Z,16.9
2022-09-15T08:58:02.091Z,16.9
2022-09-15T08:59:01.842Z,16.9
2022-09-15T09:00:01.733Z,16.9
2022-09-15T09:01:01.712Z,16.8
2022-09-15T09:02:01.659Z,16.8
2022-09-15T09:03:01.815Z,16.8
2022-09-15T09:04:02.083Z,16.9
2022-09-15T09:05:01.836Z,16.9
2022-09-15T09:06:01.676Z,16.9
2022-09-15T09:07:01.618Z,16.9
2022-09-15T09:08:01.392Z,17
2022-09-15T09:09:02.388Z,17.1
2022-09-15T09:10:02.160Z,17.1
2022-09-15T09:11:02.129Z,17
2022-09-15T09:12:01.844Z,17
2022-09-15T09:13:01.743Z,17
2022-09-15T09:14:01.775Z,17.1
2022-09-15T09:15:01.516Z,17.1
2022-09-15T09:16:01.494Z,17.2
2022-09-15T09:17:01.789Z,17.2
2022-09-15T09:18:01.742Z,17.3
2022-09-15T09:19:01.544Z,17.3
2022-09-15T09:20:01.421Z,17.2
2022-09-15T09:21:02.378Z,17.2
2022-09-15T09:22:02.135Z,17.2
2022-09-15T09:23:02.091Z,17.3
2022-09-15T09:24:01.893Z,17.5
2022-09-15T09:25:08.526Z,17.5
2022-09-15T09:26:01.771Z,17.4
2022-09-15T09:27:01.761Z,17.4
2022-09-15T09:28:01.527Z,17.5
2022-09-15T09:29:01.480Z,17.6
2022-09-15T09:30:02.384Z,17.6
2022-09-15T09:31:02.227Z,17.7
2022-09-15T09:32:01.400Z,17.8
2022-09-15T09:33:02.407Z,17.8
2022-09-15T09:34:02.230Z,17.8
2022-09-15T09:35:02.179Z,17.9
2022-09-15T09:36:02.016Z,18
2022-09-15T09:37:01.977Z,18.1
2022-09-15T09:38:01.715Z,18.1
2022-09-15T09:39:01.708Z,18
2022-09-15T09:40:01.660Z,17.8
2022-09-15T09:41:02.649Z,18
2022-09-15T09:42:01.674Z,18
2022-09-15T09:43:01.634Z,17.9
2022-09-15T09:44:01.379Z,17.7
2022-09-15T09:45:02.395Z,17.9
2022-09-15T09:46:02.183Z,18
2022-09-15T09:47:02.235Z,18.1
2022-09-15T09:48:02.211Z,18.1
2022-09-15T09:49:01.976Z,18
2022-09-15T09:50:01.985Z,17.9
2022-09-15T09:51:02.337Z,18
2022-09-15T09:52:02.103Z,17.8
2022-09-15T09:53:02.066Z,17.8
2022-09-15T09:54:01.756Z,17.7
2022-09-15T09:55:01.674Z,17.7
2022-09-15T09:56:01.581Z,17.8
2022-09-15T09:57:01.411Z,17.8
2022-09-15T09:58:02.309Z,17.7
2022-09-15T09:59:02.121Z,17.6
2022-09-15T10:00:02.024Z,17.5
2022-09-15T10:01:01.787Z,17.6
2022-09-15T10:02:01.823Z,17.6
2022-09-15T10:03:01.726Z,17.5
2022-09-15T10:04:01.568Z,17.5
2022-09-15T10:05:01.533Z,17.5
2022-09-15T10:06:01.444Z,17.5
2022-09-15T10:07:01.435Z,17.5
2022-09-15T10:08:02.432Z,17.6
2022-09-15T10:09:02.197Z,17.6
2022-09-15T10:10:02.184Z,17.6
2022-09-15T10:11:01.945Z,17.6
2022-09-15T10:12:01.915Z,17.6
2022-09-15T10:13:01.667Z,17.7
2022-09-15T10:14:01.576Z,17.6
2022-09-15T10:15:01.369Z,17.7
2022-09-15T10:16:02.303Z,17.6
2022-09-15T10:17:02.221Z,17.6
2022-09-15T10:18:02.278Z,17.5
2022-09-15T10:19:02.047Z,17.6
2022-09-15T10:20:01.950Z,17.5
2022-09-15T10:21:01.794Z,17.6
2022-09-15T10:22:01.630Z,17.6
2022-09-15T10:23:01.555Z,17.6
2022-09-15T10:24:01.355Z,17.6
2022-09-15T10:25:02.333Z,17.6
2022-09-15T10:26:02.074Z,17.7
2022-09-15T10:27:02.071Z,17.7
2022-09-15T10:28:01.834Z,17.8
2022-09-15T10:29:01.710Z,17.8
2022-09-15T10:30:01.653Z,17.7
2022-09-15T10:31:01.491Z,17.6
2022-09-15T10:32:01.363Z,17.7
2022-09-15T10:33:02.378Z,17.7
2022-09-15T10:34:02.149Z,17.7
2022-09-15T10:35:02.148Z,17.7
2022-09-15T10:36:01.861Z,17.7
2022-09-15T10:37:01.685Z,17.7
2022-09-15T10:38:01.649Z,17.7
2022-09-15T10:39:01.390Z,17.6
2022-09-15T10:40:02.416Z,17.8
2022-09-15T10:41:01.370Z,17.7
2022-09-15T10:42:02.318Z,17.6
2022-09-15T10:43:02.110Z,17.6
2022-09-15T10:44:02.015Z,17.4
2022-09-15T10:45:01.806Z,17.6
2022-09-15T10:46:01.732Z,17.4
2022-09-15T10:47:02.029Z,17.4
2022-09-15T10:48:01.948Z,17.4
2022-09-15T10:49:01.742Z,17.2
2022-09-15T10:50:01.589Z,17.4
2022-09-15T10:51:01.403Z,17.4
2022-09-15T10:52:01.419Z,17.5
2022-09-15T10:53:02.328Z,17.5
2022-09-15T10:54:02.065Z,17.2
2022-09-15T10:55:02.026Z,17.2
2022-09-15T10:56:01.821Z,17.1
2022-09-15T10:57:01.697Z,17
2022-09-15T10:58:01.631Z,17.1
2022-09-15T10:59:01.415Z,17.1
2022-09-15T11:00:02.348Z,17.2
2022-09-15T11:01:02.120Z,17.6
2022-09-15T11:02:02.196Z,17.3
2022-09-15T11:03:02.264Z,17.3
2022-09-15T11:04:02.015Z,17.3
2022-09-15T11:05:01.953Z,17.1
2022-09-15T11:06:01.724Z,17.1
2022-09-15T11:07:01.690Z,17.1
2022-09-15T11:08:01.419Z,17.1
2022-09-15T11:09:02.371Z,17
2022-09-15T11:10:02.275Z,17.1
2022-09-15T11:11:02.060Z,17.2
2022-09-15T11:12:01.894Z,17.1
2022-09-15T11:13:01.682Z,17.2
2022-09-15T11:14:01.663Z,17.3
2022-09-15T11:15:01.441Z,17.3
2022-09-15T11:16:01.479Z,17.3
2022-09-15T11:17:02.328Z,17.6
2022-09-15T11:18:02.109Z,17.4
2022-09-15T11:19:02.106Z,17.3
2022-09-15T11:20:01.926Z,17.4
2022-09-15T11:21:01.790Z,17.5
2022-09-15T11:22:01.762Z,17.8
2022-09-15T11:23:01.488Z,17.8
2022-09-15T11:24:01.463Z,17.5
2022-09-15T11:25:02.294Z,17.4
2022-09-15T11:26:02.111Z,17.3
2022-09-15T11:27:02.109Z,17.1
2022-09-15T11:28:01.873Z,17.1
2022-09-15T11:29:01.663Z,17
2022-09-15T11:30:01.603Z,17
2022-09-15T11:31:01.439Z,17.2
2022-09-15T11:33:01.497Z,17.1
2022-09-15T11:34:02.379Z,17.1
2022-09-15T11:35:02.098Z,17.2
2022-09-15T11:36:02.073Z,17.1
2022-09-15T11:37:01.835Z,17.1
2022-09-15T11:38:01.693Z,17.6
2022-09-15T11:39:01.588Z,17.5
2022-09-15T11:40:01.349Z,17.5
2022-09-15T11:41:01.449Z,17.4
2022-09-15T11:42:02.309Z,17.6
2022-09-15T11:43:02.133Z,17.5
2022-09-15T11:44:02.082Z,17.7
2022-09-15T11:45:02.083Z,17.6
2022-09-15T11:46:01.923Z,17.6
2022-09-15T11:47:02.075Z,17.6
2022-09-15T11:48:02.015Z,17.6
2022-09-15T11:49:01.827Z,17.8
2022-09-15T11:50:01.611Z,17.8
2022-09-15T11:51:01.544Z,17.6
2022-09-15T11:52:01.337Z,17.6
2022-09-15T11:53:02.339Z,17.5
2022-09-15T11:54:02.093Z,17.7
2022-09-15T11:55:02.021Z,17.5
2022-09-15T11:56:01.788Z,17.8
2022-09-15T11:57:01.646Z,17.9
2022-09-15T11:58:01.529Z,17.9
2022-09-15T11:59:01.365Z,17.9
2022-09-15T12:00:02.317Z,18.1
2022-09-15T12:01:02.048Z,18.2
2022-09-15T12:02:02.202Z,17.8
2022-09-15T12:03:02.239Z,17.8
2022-09-15T12:04:02.117Z,18.1
2022-09-15T12:05:02.064Z,18.1
2022-09-15T12:06:01.879Z,17.8
2022-09-15T12:07:01.773Z,17.8
2022-09-15T12:08:01.627Z,17.8
2022-09-15T12:09:01.395Z,17.9
2022-09-15T12:10:02.369Z,17.8
2022-09-15T12:11:02.191Z,17.8
2022-09-15T12:12:02.047Z,17.6
2022-09-15T12:13:02.026Z,17.5
2022-09-15T12:14:01.806Z,17.4
2022-09-15T12:15:01.781Z,17.5
2022-09-15T12:16:01.548Z,17.7
2022-09-15T12:17:01.395Z,17.4
2022-09-15T12:18:06.531Z,17.5
2022-09-15T12:19:02.030Z,17.3
2022-09-15T12:20:02.052Z,17.2
2022-09-15T12:21:01.866Z,17.1
2022-09-15T12:22:01.740Z,17
2022-09-15T12:23:01.643Z,17.3
2022-09-15T12:24:01.369Z,17.3
2022-09-15T12:25:02.347Z,17.4
2022-09-15T12:26:02.137Z,17.2
2022-09-15T12:27:02.069Z,17.5
2022-09-15T12:28:01.850Z,17.4
2022-09-15T12:29:01.737Z,17.5
2022-09-15T12:30:01.654Z,17.2
2022-09-15T12:31:01.457Z,17.1
2022-09-15T12:32:01.773Z,16.9
2022-09-15T12:33:01.719Z,16.9
2022-09-15T12:34:01.457Z,16.8
2022-09-15T12:35:01.427Z,16.9
2022-09-15T12:36:02.322Z,16.8
2022-09-15T12:37:02.061Z,16.8
2022-09-15T12:38:02.026Z,16.8
2022-09-15T12:39:01.789Z,16.7
2022-09-15T12:40:01.725Z,16.8
2022-09-15T12:41:01.870Z,16.6
2022-09-15T12:42:01.555Z,17
2022-09-15T12:43:01.521Z,17
2022-09-15T12:44:01.358Z,17.3
2022-09-15T12:45:02.290Z,17.1
2022-09-15T12:46:02.135Z,17.2
2022-09-15T12:47:01.342Z,16.8
2022-09-15T12:48:02.334Z,16.7
2022-09-15T12:49:02.093Z,16.7
2022-09-15T12:50:02.014Z,16.7
2022-09-15T12:51:01.789Z,16.8
2022-09-15T12:52:01.646Z,17
2022-09-15T12:53:01.566Z,16.9
2022-09-15T12:54:01.340Z,17.2
2022-09-15T12:55:02.308Z,17.2
2022-09-15T12:56:02.072Z,17.2
2022-09-15T12:57:01.977Z,17.4
2022-09-15T12:58:01.711Z,17.2
2022-09-15T12:59:04.521Z,17.3
2022-09-15T13:00:01.771Z,17.2
2022-09-15T13:01:17.400Z,17.2
2022-09-15T13:02:01.847Z,17.1
2022-09-15T13:03:01.995Z,17.3
2022-09-15T13:04:01.914Z,17.6
2022-09-15T13:05:01.762Z,17.9
2022-09-15T13:06:01.687Z,17.8
2022-09-15T13:07:01.514Z,17.9
2022-09-15T13:08:01.445Z,17.7
2022-09-15T13:09:02.280Z,18.2
2022-09-15T13:10:02.061Z,18.2
2022-09-15T13:11:01.968Z,18.1
2022-09-15T13:12:01.758Z,18.1
2022-09-15T13:13:01.555Z,17.8
2022-09-15T13:14:01.522Z,18.1
2022-09-15T13:15:02.391Z,18.3
2022-09-15T13:16:02.172Z,18.3
2022-09-15T13:17:01.361Z,17.9
2022-09-15T13:18:02.374Z,18
2022-09-15T13:19:02.146Z,17.8
2022-09-15T13:20:02.128Z,17.8
2022-09-15T13:21:02.057Z,18.1
2022-09-15T13:22:01.900Z,17.8
2022-09-15T13:23:01.820Z,17.5
2022-09-15T13:24:01.644Z,17.3
2022-09-15T13:25:01.997Z,17.5
2022-09-15T13:26:02.052Z,17.4
2022-09-15T13:27:01.910Z,17.4
2022-09-15T13:28:01.909Z,17.4
2022-09-15T13:29:01.975Z,17.5
2022-09-15T13:30:01.903Z,17.3